sensor_id;sensor_type;location;lat;lon;timestamp;pressure;altitude;pressure_sealevel;temperature;humidity
46778;BME280;32536;47.128;8.746;2023-04-02T00:01:37;90986.44;;;9.45;51.40
46778;BME280;32536;47.128;8.746;2023-04-02T00:04:24;90984.72;;;9.35;51.82
46778;BME280;32536;47.128;8.746;2023-04-02T00:07:22;90993.59;;;9.32;51.87
46778;BME280;32536;47.128;8.746;2023-04-02T00:09:56;90990.22;;;9.27;51.93
46778;BME280;32536;47.128;8.746;2023-04-02T00:12:23;90992.22;;;9.23;52.47
46778;BME280;32536;47.128;8.746;2023-04-02T00:14:53;90991.84;;;9.21;52.34
46778;BME280;32536;47.128;8.746;2023-04-02T00:17:22;90990.09;;;9.15;52.59
46778;BME280;32536;47.128;8.746;2023-04-02T00:19:57;90993.50;;;9.15;52.71
46778;BME280;32536;47.128;8.746;2023-04-02T00:22:30;90992.75;;;9.15;52.74
46778;BME280;32536;47.128;8.746;2023-04-02T00:25:00;90994.41;;;9.08;52.33
46778;BME280;32536;47.128;8.746;2023-04-02T00:27:32;91002.13;;;9.03;52.71
46778;BME280;32536;47.128;8.746;2023-04-02T00:29:59;90996.09;;;8.99;52.91
46778;BME280;32536;47.128;8.746;2023-04-02T00:32:28;90995.75;;;8.96;52.80
46778;BME280;32536;47.128;8.746;2023-04-02T00:34:57;91001.03;;;9.00;53.10
46778;BME280;32536;47.128;8.746;2023-04-02T00:37:27;90993.09;;;8.96;53.02
46778;BME280;32536;47.128;8.746;2023-04-02T00:40:13;91003.78;;;8.96;53.05
46778;BME280;32536;47.128;8.746;2023-04-02T00:42:55;91001.03;;;9.00;53.05
46778;BME280;32536;47.128;8.746;2023-04-02T00:45:26;91001.25;;;9.09;52.76
46778;BME280;32536;47.128;8.746;2023-04-02T00:47:56;91005.09;;;9.08;52.94
46778;BME280;32536;47.128;8.746;2023-04-02T00:50:35;90989.81;;;9.09;52.39
46778;BME280;32536;47.128;8.746;2023-04-02T00:53:21;90996.25;;;9.11;53.05
46778;BME280;32536;47.128;8.746;2023-04-02T00:55:50;90993.50;;;9.15;52.89
46778;BME280;32536;47.128;8.746;2023-04-02T00:58:35;91008.03;;;9.14;52.71
46778;BME280;32536;47.128;8.746;2023-04-02T01:01:02;91007.56;;;9.19;52.50
46778;BME280;32536;47.128;8.746;2023-04-02T01:03:39;90997.19;;;9.21;52.53
46778;BME280;32536;47.128;8.746;2023-04-02T01:06:10;91007.81;;;9.25;52.86
46778;BME280;32536;47.128;8.746;2023-04-02T01:21:02;91004.53;;;9.17;53.51
46778;BME280;32536;47.128;8.746;2023-04-02T01:24:05;90994.13;;;9.23;53.07
46778;BME280;32536;47.128;8.746;2023-04-02T01:26:53;90996.41;;;9.24;53.11
46778;BME280;32536;47.128;8.746;2023-04-02T01:29:24;90996.66;;;9.30;53.17
46778;BME280;32536;47.128;8.746;2023-04-02T01:31:58;90998.09;;;9.35;52.63
46778;BME280;32536;47.128;8.746;2023-04-02T01:34:27;90994.59;;;9.38;52.75
46778;BME280;32536;47.128;8.746;2023-04-02T01:37:05;90997.63;;;9.40;53.05
46778;BME280;32536;47.128;8.746;2023-04-02T01:42:51;90996.59;;;9.54;52.72
46778;BME280;32536;47.128;8.746;2023-04-02T01:45:22;90989.66;;;9.56;52.73
46778;BME280;32536;47.128;8.746;2023-04-02T01:47:49;90995.34;;;9.58;52.71
46778;BME280;32536;47.128;8.746;2023-04-02T01:53:03;91007.06;;;9.65;52.99
46778;BME280;32536;47.128;8.746;2023-04-02T01:55:42;91009.31;;;9.66;52.65
46778;BME280;32536;47.128;8.746;2023-04-02T01:58:24;91007.81;;;9.65;52.93
46778;BME280;32536;47.128;8.746;2023-04-02T02:01:04;91012.06;;;9.63;53.28
46778;BME280;32536;47.128;8.746;2023-04-02T02:03:40;91026.88;;;9.67;53.19
46778;BME280;32536;47.128;8.746;2023-04-02T02:06:13;91025.22;;;9.73;53.31
46778;BME280;32536;47.128;8.746;2023-04-02T02:08:57;91024.31;;;9.80;53.50
46778;BME280;32536;47.128;8.746;2023-04-02T02:11:28;91027.69;;;9.84;53.32
46778;BME280;32536;47.128;8.746;2023-04-02T02:14:00;91015.03;;;9.85;53.45
46778;BME280;32536;47.128;8.746;2023-04-02T02:16:33;91024.59;;;9.86;53.08
46778;BME280;32536;47.128;8.746;2023-04-02T02:19:17;91023.41;;;9.87;53.34
46778;BME280;32536;47.128;8.746;2023-04-02T02:24:47;91020.75;;;9.87;53.38
46778;BME280;32536;47.128;8.746;2023-04-02T02:29:59;91014.91;;;9.92;52.64
46778;BME280;32536;47.128;8.746;2023-04-02T02:32:33;91014.81;;;9.96;52.92
46778;BME280;32536;47.128;8.746;2023-04-02T02:35:17;91028.63;;;9.94;53.34
46778;BME280;32536;47.128;8.746;2023-04-02T02:40:52;91032.59;;;10.06;52.63
46778;BME280;32536;47.128;8.746;2023-04-02T02:43:22;91026.72;;;10.11;53.08
46778;BME280;32536;47.128;8.746;2023-04-02T02:45:51;91029.00;;;10.13;52.95
46778;BME280;32536;47.128;8.746;2023-04-02T02:48:22;91023.56;;;10.16;52.66
46778;BME280;32536;47.128;8.746;2023-04-02T02:50:58;91032.69;;;10.19;53.03
46778;BME280;32536;47.128;8.746;2023-04-02T02:53:25;91035.78;;;10.17;53.14
46778;BME280;32536;47.128;8.746;2023-04-02T02:55:56;91034.34;;;10.13;52.89
46778;BME280;32536;47.128;8.746;2023-04-02T02:58:28;91038.69;;;10.06;52.99
46778;BME280;32536;47.128;8.746;2023-04-02T03:00:57;91042.94;;;10.04;53.39
46778;BME280;32536;47.128;8.746;2023-04-02T03:03:29;91046.50;;;9.97;53.37
46778;BME280;32536;47.128;8.746;2023-04-02T03:06:02;91040.50;;;9.93;53.79
46778;BME280;32536;47.128;8.746;2023-04-02T03:08:37;91048.88;;;9.95;53.66
46778;BME280;32536;47.128;8.746;2023-04-02T03:11:15;91044.59;;;9.98;53.97
46778;BME280;32536;47.128;8.746;2023-04-02T03:14:17;91052.63;;;9.98;53.87
46778;BME280;32536;47.128;8.746;2023-04-02T03:16:50;91062.16;;;9.99;53.46
46778;BME280;32536;47.128;8.746;2023-04-02T03:19:32;91062.16;;;9.99;53.40
46778;BME280;32536;47.128;8.746;2023-04-02T03:22:18;91064.00;;;10.02;53.43
46778;BME280;32536;47.128;8.746;2023-04-02T03:25:02;91066.00;;;9.98;52.88
46778;BME280;32536;47.128;8.746;2023-04-02T03:27:57;91066.00;;;9.98;53.06
46778;BME280;32536;47.128;8.746;2023-04-02T03:30:48;91066.00;;;9.98;52.84
46778;BME280;32536;47.128;8.746;2023-04-02T03:33:25;91065.25;;;9.97;53.30
46778;BME280;32536;47.128;8.746;2023-04-02T03:36:04;91067.84;;;10.01;53.47
46778;BME280;32536;47.128;8.746;2023-04-02T03:38:43;91063.59;;;10.03;53.64
46778;BME280;32536;47.128;8.746;2023-04-02T03:41:20;91073.47;;;10.06;53.13
46778;BME280;32536;47.128;8.746;2023-04-02T03:44:02;91073.81;;;10.08;53.46
46778;BME280;32536;47.128;8.746;2023-04-02T03:46:39;91076.88;;;10.07;53.24
46778;BME280;32536;47.128;8.746;2023-04-02T03:52:09;91072.66;;;10.09;53.27
46778;BME280;32536;47.128;8.746;2023-04-02T03:54:47;91068.78;;;10.10;52.91
46778;BME280;32536;47.128;8.746;2023-04-02T03:57:24;91066.09;;;10.10;52.82
46778;BME280;32536;47.128;8.746;2023-04-02T03:59:58;91082.09;;;10.14;52.75
46778;BME280;32536;47.128;8.746;2023-04-02T04:05:18;91084.63;;;10.21;53.13
46778;BME280;32536;47.128;8.746;2023-04-02T04:07:50;91083.38;;;10.26;52.70
46778;BME280;32536;47.128;8.746;2023-04-02T04:10:19;91093.19;;;10.33;52.75
46778;BME280;32536;47.128;8.746;2023-04-02T04:12:54;91093.88;;;10.37;52.73
46778;BME280;32536;47.128;8.746;2023-04-02T04:15:31;91100.81;;;10.34;52.50
46778;BME280;32536;47.128;8.746;2023-04-02T04:21:28;91112.09;;;10.25;52.58
46778;BME280;32536;47.128;8.746;2023-04-02T04:23:58;91106.47;;;10.20;52.74
46778;BME280;32536;47.128;8.746;2023-04-02T04:26:43;91105.09;;;10.12;52.55
46778;BME280;32536;47.128;8.746;2023-04-02T04:32:44;91102.91;;;10.06;53.03
46778;BME280;32536;47.128;8.746;2023-04-02T04:35:29;91106.75;;;10.05;53.14
46778;BME280;32536;47.128;8.746;2023-04-02T04:40:49;91110.50;;;10.08;53.15
46778;BME280;32536;47.128;8.746;2023-04-02T04:43:30;91110.13;;;10.09;53.18
46778;BME280;32536;47.128;8.746;2023-04-02T04:46:09;91115.47;;;10.09;53.19
46778;BME280;32536;47.128;8.746;2023-04-02T04:52:13;91114.78;;;10.05;52.87
46778;BME280;32536;47.128;8.746;2023-04-02T04:54:51;91117.53;;;10.02;53.11
46778;BME280;32536;47.128;8.746;2023-04-02T04:57:35;91116.84;;;9.98;52.28
46778;BME280;32536;47.128;8.746;2023-04-02T05:00:11;91124.88;;;9.98;52.53
46778;BME280;32536;47.128;8.746;2023-04-02T05:03:07;91124.59;;;9.92;51.84
46778;BME280;32536;47.128;8.746;2023-04-02T05:05:43;91129.63;;;9.90;52.55
46778;BME280;32536;47.128;8.746;2023-04-02T05:08:19;91126.72;;;9.81;52.15
46778;BME280;32536;47.128;8.746;2023-04-02T05:11:02;91128.31;;;9.78;52.61
46778;BME280;32536;47.128;8.746;2023-04-02T05:13:41;91124.47;;;9.79;52.62
46778;BME280;32536;47.128;8.746;2023-04-02T05:16:32;91127.88;;;9.80;52.49
46778;BME280;32536;47.128;8.746;2023-04-02T05:19:48;91131.06;;;9.74;52.01
46778;BME280;32536;47.128;8.746;2023-04-02T05:22:27;91133.78;;;9.71;52.25
46778;BME280;32536;47.128;8.746;2023-04-02T05:25:17;91134.28;;;9.66;51.92
46778;BME280;32536;47.128;8.746;2023-04-02T05:28:53;91136.66;;;9.60;52.42
46778;BME280;32536;47.128;8.746;2023-04-02T05:31:24;91135.91;;;9.59;52.31
46778;BME280;32536;47.128;8.746;2023-04-02T05:34:02;91145.09;;;9.58;52.64
46778;BME280;32536;47.128;8.746;2023-04-02T05:36:29;91153.50;;;9.57;52.61
46778;BME280;32536;47.128;8.746;2023-04-02T05:38:57;91146.25;;;9.57;52.81
46778;BME280;32536;47.128;8.746;2023-04-02T05:41:27;91155.38;;;9.60;52.88
46778;BME280;32536;47.128;8.746;2023-04-02T05:44:35;91147.28;;;9.64;52.76
46778;BME280;32536;47.128;8.746;2023-04-02T05:47:12;91151.47;;;9.65;52.64
46778;BME280;32536;47.128;8.746;2023-04-02T05:49:49;91161.41;;;9.64;52.45
46778;BME280;32536;47.128;8.746;2023-04-02T05:52:37;91159.84;;;9.67;52.87
46778;BME280;32536;47.128;8.746;2023-04-02T05:57:42;91158.66;;;9.68;53.59
46778;BME280;32536;47.128;8.746;2023-04-02T06:00:24;91158.22;;;9.73;53.05
46778;BME280;32536;47.128;8.746;2023-04-02T06:03:23;91168.00;;;9.80;53.24
46778;BME280;32536;47.128;8.746;2023-04-02T06:06:02;91158.75;;;9.84;53.34
46778;BME280;32536;47.128;8.746;2023-04-02T06:08:39;91165.63;;;9.85;53.01
46778;BME280;32536;47.128;8.746;2023-04-02T06:11:13;91160.28;;;9.85;52.78
46778;BME280;32536;47.128;8.746;2023-04-02T06:13:45;91162.53;;;9.87;53.04
46778;BME280;32536;47.128;8.746;2023-04-02T06:16:13;91164.78;;;9.88;53.11
46778;BME280;32536;47.128;8.746;2023-04-02T06:18:41;91167.81;;;9.90;53.25
46778;BME280;32536;47.128;8.746;2023-04-02T06:21:11;91176.94;;;9.93;52.71
46778;BME280;32536;47.128;8.746;2023-04-02T06:23:47;91175.72;;;9.98;52.65
46778;BME280;32536;47.128;8.746;2023-04-02T06:26:35;91174.06;;;10.04;52.80
46778;BME280;32536;47.128;8.746;2023-04-02T06:29:30;91178.25;;;10.05;52.21
46778;BME280;32536;47.128;8.746;2023-04-02T06:32:09;91182.78;;;10.08;52.82
46778;BME280;32536;47.128;8.746;2023-04-02T06:34:39;91175.84;;;10.10;52.99
46778;BME280;32536;47.128;8.746;2023-04-02T06:37:14;91175.03;;;10.14;52.63
46778;BME280;32536;47.128;8.746;2023-04-02T06:46:21;91186.63;;;10.07;52.24
46778;BME280;32536;47.128;8.746;2023-04-02T06:51:47;91189.44;;;10.00;52.85
46778;BME280;32536;47.128;8.746;2023-04-02T06:54:17;91196.78;;;9.96;52.63
46778;BME280;32536;47.128;8.746;2023-04-02T06:56:46;91203.09;;;9.85;52.52
46778;BME280;32536;47.128;8.746;2023-04-02T06:59:17;91194.41;;;9.77;52.97
46778;BME280;32536;47.128;8.746;2023-04-02T07:01:57;91209.38;;;9.75;52.34
46778;BME280;32536;47.128;8.746;2023-04-02T07:04:28;91204.78;;;9.75;53.18
46778;BME280;32536;47.128;8.746;2023-04-02T07:06:55;91208.19;;;9.76;53.11
46778;BME280;32536;47.128;8.746;2023-04-02T07:09:22;91210.06;;;9.79;53.29
46778;BME280;32536;47.128;8.746;2023-04-02T07:11:50;91208.44;;;9.85;53.07
46778;BME280;32536;47.128;8.746;2023-04-02T07:14:17;91205.28;;;9.90;53.55
46778;BME280;32536;47.128;8.746;2023-04-02T07:16:43;91212.81;;;9.96;53.47
46778;BME280;32536;47.128;8.746;2023-04-02T07:19:19;91213.13;;;10.01;53.35
46778;BME280;32536;47.128;8.746;2023-04-02T07:21:47;91210.69;;;10.07;53.46
46778;BME280;32536;47.128;8.746;2023-04-02T07:24:14;91213.66;;;10.13;53.33
46778;BME280;32536;47.128;8.746;2023-04-02T07:26:41;91214.00;;;10.15;52.99
46778;BME280;32536;47.128;8.746;2023-04-02T07:29:12;91214.00;;;10.15;51.91
46778;BME280;32536;47.128;8.746;2023-04-02T07:31:41;91205.22;;;10.14;52.52
46778;BME280;32536;47.128;8.746;2023-04-02T07:34:08;91207.56;;;10.12;53.02
46778;BME280;32536;47.128;8.746;2023-04-02T07:36:34;91215.91;;;10.14;52.89
46778;BME280;32536;47.128;8.746;2023-04-02T07:39:01;91215.84;;;10.18;52.48
46778;BME280;32536;47.128;8.746;2023-04-02T07:41:28;91208.25;;;10.16;52.30
46778;BME280;32536;47.128;8.746;2023-04-02T07:43:56;91212.00;;;10.19;52.71
46778;BME280;32536;47.128;8.746;2023-04-02T07:46:22;91210.09;;;10.19;52.39
46778;BME280;32536;47.128;8.746;2023-04-02T07:48:50;91212.72;;;10.23;52.35
46778;BME280;32536;47.128;8.746;2023-04-02T07:51:24;91211.88;;;10.26;51.34
46778;BME280;32536;47.128;8.746;2023-04-02T07:53:51;91220.63;;;10.30;51.50
46778;BME280;32536;47.128;8.746;2023-04-02T07:56:22;91216.75;;;10.31;51.42
46778;BME280;32536;47.128;8.746;2023-04-02T07:58:49;91222.94;;;10.28;51.06
46778;BME280;32536;47.128;8.746;2023-04-02T08:01:21;91224.03;;;10.31;49.55
46778;BME280;32536;47.128;8.746;2023-04-02T08:03:51;91224.34;;;10.36;51.58
46778;BME280;32536;47.128;8.746;2023-04-02T08:06:18;91220.41;;;10.41;51.17
46778;BME280;32536;47.128;8.746;2023-04-02T08:08:46;91224.47;;;10.49;51.30
46778;BME280;32536;47.128;8.746;2023-04-02T08:11:13;91234.22;;;10.60;51.48
46778;BME280;32536;47.128;8.746;2023-04-02T08:13:39;91233.91;;;10.74;52.49
46778;BME280;32536;47.128;8.746;2023-04-02T08:16:07;91229.00;;;10.89;52.23
46778;BME280;32536;47.128;8.746;2023-04-02T08:18:34;91233.72;;;11.01;51.16
46778;BME280;32536;47.128;8.746;2023-04-02T08:21:02;91243.03;;;11.13;51.67
46778;BME280;32536;47.128;8.746;2023-04-02T08:23:31;91240.09;;;11.24;51.25
46778;BME280;32536;47.128;8.746;2023-04-02T08:25:58;91244.28;;;11.25;49.94
46778;BME280;32536;47.128;8.746;2023-04-02T08:28:24;91243.75;;;11.34;51.24
46778;BME280;32536;47.128;8.746;2023-04-02T08:30:51;91244.75;;;11.40;51.98
46778;BME280;32536;47.128;8.746;2023-04-02T08:33:18;91246.56;;;11.43;52.04
46778;BME280;32536;47.128;8.746;2023-04-02T08:35:47;91245.50;;;11.41;51.49
46778;BME280;32536;47.128;8.746;2023-04-02T08:38:16;91251.28;;;11.39;52.04
46778;BME280;32536;47.128;8.746;2023-04-02T08:40:47;91250.66;;;11.31;51.45
46778;BME280;32536;47.128;8.746;2023-04-02T08:43:48;91249.66;;;11.25;51.98
46778;BME280;32536;47.128;8.746;2023-04-02T08:46:42;91252.69;;;11.27;51.61
46778;BME280;32536;47.128;8.746;2023-04-02T08:49:17;91256.72;;;11.35;52.14
46778;BME280;32536;47.128;8.746;2023-04-02T08:52:00;91255.03;;;11.42;52.23
46778;BME280;32536;47.128;8.746;2023-04-02T08:55:12;91262.31;;;11.41;51.55
46778;BME280;32536;47.128;8.746;2023-04-02T09:01:02;91259.75;;;11.54;52.07
46778;BME280;32536;47.128;8.746;2023-04-02T09:03:37;91260.16;;;11.52;51.24
46778;BME280;32536;47.128;8.746;2023-04-02T09:06:08;91270.81;;;11.56;52.21
46778;BME280;32536;47.128;8.746;2023-04-02T09:08:38;91276.84;;;11.60;52.46
46778;BME280;32536;47.128;8.746;2023-04-02T09:11:34;91270.72;;;11.60;52.10
46778;BME280;32536;47.128;8.746;2023-04-02T09:14:20;91274.66;;;11.55;52.53
46778;BME280;32536;47.128;8.746;2023-04-02T09:16:56;91277.66;;;11.41;52.31
46778;BME280;32536;47.128;8.746;2023-04-02T09:19:36;91283.19;;;11.33;52.55
46778;BME280;32536;47.128;8.746;2023-04-02T09:22:18;91279.75;;;11.33;52.72
46778;BME280;32536;47.128;8.746;2023-04-02T09:24:54;91285.94;;;11.30;51.97
46778;BME280;32536;47.128;8.746;2023-04-02T09:27:34;91288.72;;;11.26;52.34
46778;BME280;32536;47.128;8.746;2023-04-02T09:32:51;91294.50;;;11.25;52.68
46778;BME280;32536;47.128;8.746;2023-04-02T09:35:26;91300.22;;;11.27;52.86
46778;BME280;32536;47.128;8.746;2023-04-02T09:40:56;91302.53;;;11.25;52.77
46778;BME280;32536;47.128;8.746;2023-04-02T09:43:32;91311.47;;;11.18;52.85
46778;BME280;32536;47.128;8.746;2023-04-02T09:46:23;91319.66;;;11.11;52.44
46778;BME280;32536;47.128;8.746;2023-04-02T09:48:59;91316.59;;;11.12;52.89
46778;BME280;32536;47.128;8.746;2023-04-02T09:51:29;91315.81;;;11.12;53.29
46778;BME280;32536;47.128;8.746;2023-04-02T09:56:30;91312.75;;;11.13;52.82
46778;BME280;32536;47.128;8.746;2023-04-02T09:59:21;91314.94;;;11.18;52.34
46778;BME280;32536;47.128;8.746;2023-04-02T10:09:59;91323.19;;;11.44;52.81
46778;BME280;32536;47.128;8.746;2023-04-02T10:12:29;91326.88;;;11.50;52.53
46778;BME280;32536;47.128;8.746;2023-04-02T10:15:02;91330.66;;;11.53;52.95
46778;BME280;32536;47.128;8.746;2023-04-02T10:17:32;91325.44;;;11.46;52.62
46778;BME280;32536;47.128;8.746;2023-04-02T10:20:09;91337.09;;;11.39;52.34
46778;BME280;32536;47.128;8.746;2023-04-02T10:22:44;91337.09;;;11.39;52.64
46778;BME280;32536;47.128;8.746;2023-04-02T10:25:16;91338.94;;;11.42;52.85
46778;BME280;32536;47.128;8.746;2023-04-02T10:27:57;91340.28;;;11.50;52.14
46778;BME280;32536;47.128;8.746;2023-04-02T10:31:06;91342.06;;;11.57;51.74
46778;BME280;32536;47.128;8.746;2023-04-02T10:33:56;91336.59;;;11.61;51.39
46778;BME280;32536;47.128;8.746;2023-04-02T10:36:50;91339.41;;;11.57;47.48
46778;BME280;32536;47.128;8.746;2023-04-02T10:39:42;91338.19;;;11.58;47.24
46778;BME280;32536;47.128;8.746;2023-04-02T10:42:37;91346.16;;;11.62;45.42
46778;BME280;32536;47.128;8.746;2023-04-02T10:48:30;91351.06;;;11.83;49.73
46778;BME280;32536;47.128;8.746;2023-04-02T10:52:04;91355.53;;;11.90;50.67
46778;BME280;32536;47.128;8.746;2023-04-02T10:54:31;91354.53;;;12.00;51.25
46778;BME280;32536;47.128;8.746;2023-04-02T11:00:22;91352.69;;;11.97;51.93
46778;BME280;32536;47.128;8.746;2023-04-02T11:03:30;91349.03;;;11.88;51.86
46778;BME280;32536;47.128;8.746;2023-04-02T11:06:14;91349.94;;;11.64;51.75
46778;BME280;32536;47.128;8.746;2023-04-02T11:08:47;91367.13;;;11.50;52.73
46778;BME280;32536;47.128;8.746;2023-04-02T11:11:21;91362.69;;;11.44;52.20
46778;BME280;32536;47.128;8.746;2023-04-02T11:14:19;91369.94;;;11.43;52.66
46778;BME280;32536;47.128;8.746;2023-04-02T11:16:59;91363.34;;;11.48;52.15
46778;BME280;32536;47.128;8.746;2023-04-02T11:19:32;91372.06;;;11.52;52.34
46778;BME280;32536;47.128;8.746;2023-04-02T11:21:59;91372.34;;;11.58;52.07
46778;BME280;32536;47.128;8.746;2023-04-02T11:27:15;91373.50;;;11.57;53.01
46778;BME280;32536;47.128;8.746;2023-04-02T11:30:18;91376.53;;;11.59;52.20
46778;BME280;32536;47.128;8.746;2023-04-02T11:32:49;91383.81;;;11.58;52.95
46778;BME280;32536;47.128;8.746;2023-04-02T11:38:00;91384.44;;;11.66;52.65
46778;BME280;32536;47.128;8.746;2023-04-02T11:40:42;91383.66;;;11.65;52.15
46778;BME280;32536;47.128;8.746;2023-04-02T11:46:48;91387.78;;;11.70;51.75
46778;BME280;32536;47.128;8.746;2023-04-02T11:49:33;91393.00;;;11.77;51.95
46778;BME280;32536;47.128;8.746;2023-04-02T11:52:02;91399.28;;;11.87;52.48
46778;BME280;32536;47.128;8.746;2023-04-02T11:54:35;91398.03;;;11.92;52.07
46778;BME280;32536;47.128;8.746;2023-04-02T12:03:25;91402.03;;;12.04;52.09
46778;BME280;32536;47.128;8.746;2023-04-02T12:09:43;91401.19;;;12.07;52.14
46778;BME280;32536;47.128;8.746;2023-04-02T12:14:55;91409.16;;;12.10;52.47
46778;BME280;32536;47.128;8.746;2023-04-02T12:22:45;91400.34;;;12.10;52.26
46778;BME280;32536;47.128;8.746;2023-04-02T12:25:32;91409.50;;;12.12;52.45
46778;BME280;32536;47.128;8.746;2023-04-02T12:30:36;91405.47;;;12.21;52.63
46778;BME280;32536;47.128;8.746;2023-04-02T12:33:25;91408.91;;;12.21;52.00
46778;BME280;32536;47.128;8.746;2023-04-02T12:36:16;91415.72;;;12.26;52.10
46778;BME280;32536;47.128;8.746;2023-04-02T12:41:35;91409.31;;;12.36;51.38
46778;BME280;32536;47.128;8.746;2023-04-02T12:44:17;91407.72;;;12.39;51.71
46778;BME280;32536;47.128;8.746;2023-04-02T12:46:49;91417.97;;;12.44;52.36
46778;BME280;32536;47.128;8.746;2023-04-02T12:52:17;91406.38;;;12.47;51.59
46778;BME280;32536;47.128;8.746;2023-04-02T12:55:23;91404.78;;;12.49;51.99
46778;BME280;32536;47.128;8.746;2023-04-02T12:57:58;91408.63;;;12.48;49.74
46778;BME280;32536;47.128;8.746;2023-04-02T13:00:27;91414.25;;;12.54;52.11
46778;BME280;32536;47.128;8.746;2023-04-02T13:03:15;91411.06;;;12.59;50.92
46778;BME280;32536;47.128;8.746;2023-04-02T13:08:27;91411.88;;;12.73;51.34
46778;BME280;32536;47.128;8.746;2023-04-02T13:11:03;91408.25;;;12.79;51.55
46778;BME280;32536;47.128;8.746;2023-04-02T13:13:33;91418.84;;;12.87;51.65
46778;BME280;32536;47.128;8.746;2023-04-02T13:18:47;91413.53;;;12.83;51.50
46778;BME280;32536;47.128;8.746;2023-04-02T13:21:25;91408.78;;;12.74;50.50
46778;BME280;32536;47.128;8.746;2023-04-02T13:23:52;91403.72;;;12.76;47.01
46778;BME280;32536;47.128;8.746;2023-04-02T13:26:26;91408.34;;;12.76;48.33
46778;BME280;32536;47.128;8.746;2023-04-02T13:31:44;91414.19;;;12.87;50.99
46778;BME280;32536;47.128;8.746;2023-04-02T13:34:11;91418.50;;;12.85;49.66
46778;BME280;32536;47.128;8.746;2023-04-02T13:36:37;91415.25;;;12.77;49.13
46778;BME280;32536;47.128;8.746;2023-04-02T13:39:04;91422.88;;;12.62;49.21
46778;BME280;32536;47.128;8.746;2023-04-02T13:41:46;91411.81;;;12.43;46.39
46778;BME280;32536;47.128;8.746;2023-04-02T13:44:29;91413.25;;;12.31;46.86
46778;BME280;32536;47.128;8.746;2023-04-02T13:46:58;91417.31;;;12.23;49.74
46778;BME280;32536;47.128;8.746;2023-04-02T13:49:25;91417.38;;;12.20;49.61
46778;BME280;32536;47.128;8.746;2023-04-02T13:51:54;91425.09;;;12.17;49.80
46778;BME280;32536;47.128;8.746;2023-04-02T13:54:30;91426.97;;;12.21;50.14
46778;BME280;32536;47.128;8.746;2023-04-02T13:57:00;91416.78;;;12.28;50.88
46778;BME280;32536;47.128;8.746;2023-04-02T13:59:27;91422.09;;;12.32;51.03
46778;BME280;32536;47.128;8.746;2023-04-02T14:01:56;91423.91;;;12.35;51.26
46778;BME280;32536;47.128;8.746;2023-04-02T14:04:31;91420.75;;;12.40;50.98
46778;BME280;32536;47.128;8.746;2023-04-02T14:07:24;91423.81;;;12.39;50.02
46778;BME280;32536;47.128;8.746;2023-04-02T14:15:38;91435.34;;;12.39;51.42
46778;BME280;32536;47.128;8.746;2023-04-02T14:21:13;91426.88;;;12.24;50.96
46778;BME280;32536;47.128;8.746;2023-04-02T14:24:05;91430.03;;;12.19;50.76
46778;BME280;32536;47.128;8.746;2023-04-02T14:27:34;91430.03;;;12.19;50.91
46778;BME280;32536;47.128;8.746;2023-04-02T14:32:27;91439.19;;;12.05;51.01
46778;BME280;32536;47.128;8.746;2023-04-02T14:35:22;91436.66;;;11.98;51.25
46778;BME280;32536;47.128;8.746;2023-04-02T14:38:16;91433.34;;;11.90;50.63
46778;BME280;32536;47.128;8.746;2023-04-02T14:41:01;91437.38;;;11.82;50.78
46778;BME280;32536;47.128;8.746;2023-04-02T14:43:54;91443.63;;;11.75;50.93
46778;BME280;32536;47.128;8.746;2023-04-02T14:46:26;91446.00;;;11.73;50.86
46778;BME280;32536;47.128;8.746;2023-04-02T14:52:03;91445.22;;;11.73;51.00
46778;BME280;32536;47.128;8.746;2023-04-02T14:54:38;91444.78;;;11.74;50.53
46778;BME280;32536;47.128;8.746;2023-04-02T14:57:29;91441.38;;;11.74;49.99
46778;BME280;32536;47.128;8.746;2023-04-02T15:00:32;91442.88;;;11.75;50.76
46778;BME280;32536;47.128;8.746;2023-04-02T15:03:21;91444.31;;;11.79;50.46
46778;BME280;32536;47.128;8.746;2023-04-02T15:06:04;91445.66;;;11.88;50.01
46778;BME280;32536;47.128;8.746;2023-04-02T15:08:38;91444.72;;;11.98;50.16
46778;BME280;32536;47.128;8.746;2023-04-02T15:11:25;91448.41;;;12.04;48.10
46778;BME280;32536;47.128;8.746;2023-04-02T15:14:01;91442.13;;;12.11;48.57
46778;BME280;32536;47.128;8.746;2023-04-02T15:16:43;91445.41;;;12.19;50.90
46778;BME280;32536;47.128;8.746;2023-04-02T15:19:17;91440.38;;;12.21;48.90
46778;BME280;32536;47.128;8.746;2023-04-02T15:27:23;91451.63;;;12.32;45.14
46778;BME280;32536;47.128;8.746;2023-04-02T15:30:21;91440.38;;;12.37;47.43
46778;BME280;32536;47.128;8.746;2023-04-02T15:33:30;91446.84;;;12.40;44.53
46778;BME280;32536;47.128;8.746;2023-04-02T15:42:04;91445.31;;;12.55;45.19
46778;BME280;32536;47.128;8.746;2023-04-02T15:44:45;91449.75;;;12.62;45.86
46778;BME280;32536;47.128;8.746;2023-04-02T15:48:01;91446.16;;;12.69;46.20
46778;BME280;32536;47.128;8.746;2023-04-02T15:50:50;91452.34;;;12.82;49.07
46778;BME280;32536;47.128;8.746;2023-04-02T15:53:41;91448.53;;;12.96;48.39
46778;BME280;32536;47.128;8.746;2023-04-02T15:56:54;91453.91;;;12.96;43.32
46778;BME280;32536;47.128;8.746;2023-04-02T15:59:39;91446.44;;;13.04;48.30
46778;BME280;32536;47.128;8.746;2023-04-02T16:07:58;91456.66;;;13.09;46.83
46778;BME280;32536;47.128;8.746;2023-04-02T16:10:45;91466.47;;;13.16;49.07
46778;BME280;32536;47.128;8.746;2023-04-02T16:13:17;91467.47;;;13.22;49.10
46778;BME280;32536;47.128;8.746;2023-04-02T16:15:48;91472.25;;;13.31;49.33
46778;BME280;32536;47.128;8.746;2023-04-02T16:21:21;91481.50;;;13.29;49.31
46778;BME280;32536;47.128;8.746;2023-04-02T16:23:49;91483.00;;;13.31;49.72
46778;BME280;32536;47.128;8.746;2023-04-02T16:32:28;91504.09;;;13.32;49.66
46778;BME280;32536;47.128;8.746;2023-04-02T16:43:32;91511.88;;;13.13;49.10
46778;BME280;32536;47.128;8.746;2023-04-02T16:49:25;91524.25;;;12.94;49.43
46778;BME280;32536;47.128;8.746;2023-04-02T16:52:06;91512.31;;;12.79;49.25
46778;BME280;32536;47.128;8.746;2023-04-02T16:58:23;91533.16;;;12.58;49.36
46778;BME280;32536;47.128;8.746;2023-04-02T17:13:39;91551.31;;;11.77;50.62